createdAt,value
2023-05-11T00:01:24.032Z,97513.53
2023-05-11T00:06:26.298Z,97507.50
2023-05-11T00:11:28.259Z,97499.44
2023-05-11T00:16:30.318Z,97508.44
2023-05-11T00:21:32.373Z,97508.44
2023-05-11T00:26:34.208Z,97505.03
2023-05-11T00:31:36.032Z,97496.78
2023-05-11T00:36:41.327Z,97492.41
2023-05-11T00:41:43.676Z,97484.97
2023-05-11T00:46:45.594Z,97479.75
2023-05-11T00:51:47.492Z,97484.16
2023-05-11T00:56:49.401Z,97481.31
2023-05-11T01:01:51.596Z,97475.09
2023-05-11T01:07:13.781Z,97476.50
2023-05-11T01:12:30.883Z,97471.13
2023-05-11T01:18:06.300Z,97476.91
2023-05-11T01:23:08.231Z,97475.91
2023-05-11T01:28:55.994Z,97487.91
2023-05-11T01:34:03.939Z,97476.47
2023-05-11T01:39:10.093Z,97470.25
2023-05-11T01:44:13.929Z,97473.84
2023-05-11T01:49:17.958Z,97475.81
2023-05-11T01:54:22.099Z,97480.66
2023-05-11T01:59:26.529Z,97486.66
2023-05-11T02:04:30.158Z,97479.03
2023-05-11T02:09:34.861Z,97480.66
2023-05-11T02:14:38.463Z,97476.84
2023-05-11T02:19:44.128Z,97482.66
2023-05-11T02:24:47.967Z,97483.44
2023-05-11T02:29:49.828Z,97481.44
2023-05-11T02:35:02.058Z,97471.63
2023-05-11T02:40:08.749Z,97471.41
2023-05-11T02:45:14.474Z,97475.63
2023-05-11T02:50:18.911Z,97476.81
2023-05-11T02:55:22.838Z,97467.16
2023-05-11T03:00:25.107Z,97467.75
2023-05-11T03:05:27.397Z,97473.97
2023-05-11T03:10:29.952Z,97476.78
2023-05-11T03:15:33.132Z,97472.81
2023-05-11T03:20:40.691Z,97469.56
2023-05-11T03:25:44.148Z,97473.78
2023-05-11T03:30:48.210Z,97475.22
2023-05-11T03:35:54.213Z,97479.03
2023-05-11T03:40:59.275Z,97473.03
2023-05-11T03:46:03.894Z,97472.41
2023-05-11T03:51:06.428Z,97470.44
2023-05-11T03:56:08.658Z,97474.19
2023-05-11T04:01:13.222Z,97465.63
2023-05-11T04:06:16.864Z,97462.88
2023-05-11T04:11:21.746Z,97468.69
2023-05-11T04:16:23.601Z,97472.72
2023-05-11T04:21:25.515Z,97473.72
2023-05-11T04:26:27.388Z,97468.53
2023-05-11T04:31:30.570Z,97478.31
2023-05-11T04:36:33.087Z,97478.53
2023-05-11T04:41:34.968Z,97475.75
2023-05-11T04:46:41.075Z,97477.16
2023-05-11T04:51:42.993Z,97484.41
2023-05-11T04:56:45.159Z,97477.91
2023-05-11T05:01:47.068Z,97483.84
2023-05-11T05:06:48.904Z,97478.84
2023-05-11T05:11:51.143Z,97483.13
2023-05-11T05:16:54.629Z,97484.53
2023-05-11T05:21:57.021Z,97482.34
2023-05-11T05:26:59.720Z,97484.81
2023-05-11T05:32:02.075Z,97487.69
2023-05-11T05:37:04.684Z,97494.97
2023-05-11T05:42:07.194Z,97492.97
2023-05-11T05:47:10.080Z,97501.66
2023-05-11T05:52:13.033Z,97507.94
2023-05-11T05:57:16.180Z,97509.78
2023-05-11T06:02:19.679Z,97507.00
2023-05-11T06:07:21.631Z,97514.06
2023-05-11T06:12:23.540Z,97514.66
2023-05-11T06:17:28.503Z,97515.47
2023-05-11T06:22:30.565Z,97524.72
2023-05-11T06:27:32.999Z,97523.53
2023-05-11T06:32:35.215Z,97531.94
2023-05-11T06:37:38.126Z,97524.94
2023-05-11T06:42:40.139Z,97516.28
2023-05-11T06:47:44.728Z,97521.69
2023-05-11T06:52:46.587Z,97524.31
2023-05-11T06:57:48.688Z,97524.25
2023-05-11T07:02:50.641Z,97519.88
2023-05-11T07:07:52.501Z,97520.16
2023-05-11T07:12:54.347Z,97524.22
2023-05-11T07:17:56.237Z,97525.19
2023-05-11T07:23:01.918Z,97530.13
2023-05-11T07:28:03.736Z,97532.50
2023-05-11T07:33:06.718Z,97537.28
2023-05-11T07:38:11.904Z,97538.38
2023-05-11T07:43:13.781Z,97541.94
2023-05-11T07:48:15.661Z,97544.41
2023-05-11T07:53:17.679Z,97546.47
2023-05-11T07:58:19.489Z,97547.41
2023-05-11T08:03:21.665Z,97544.34
2023-05-11T08:08:25.164Z,97544.47
2023-05-11T08:13:27.161Z,97543.31
2023-05-11T08:18:29.656Z,97549.78
2023-05-11T08:23:31.807Z,97553.47
2023-05-11T08:28:33.674Z,97552.53
2023-05-11T08:33:38.303Z,97558.78
2023-05-11T08:38:40.674Z,97557.00
2023-05-11T08:43:46.032Z,97549.44
2023-05-11T08:48:48.800Z,97555.75
2023-05-11T08:53:50.769Z,97550.00
2023-05-11T08:58:57.803Z,97557.00
2023-05-11T09:03:59.822Z,97549.91
2023-05-11T09:09:01.883Z,97554.09
2023-05-11T09:14:03.752Z,97547.97
2023-05-11T09:19:06.417Z,97548.53
2023-05-11T09:24:11.543Z,97550.16
2023-05-11T09:29:13.367Z,97551.56
2023-05-11T09:34:20.149Z,97552.13
2023-05-11T09:39:43.942Z,97561.59
2023-05-11T09:44:49.360Z,97560.34
2023-05-11T09:49:51.179Z,97562.88
2023-05-11T09:54:53.177Z,97559.81
2023-05-11T09:59:56.732Z,97557.88
2023-05-11T10:05:01.566Z,97557.41
2023-05-11T10:10:06.058Z,97564.47
2023-05-11T10:15:09.904Z,97553.25
2023-05-11T10:20:12.896Z,97546.53
2023-05-11T10:25:15.978Z,97550.84
2023-05-11T10:30:18.474Z,97547.38
2023-05-11T10:35:21.549Z,97548.72
2023-05-11T10:40:23.849Z,97548.19
2023-05-11T10:45:28.776Z,97541.63
2023-05-11T10:50:30.605Z,97537.34
2023-05-11T10:55:46.901Z,97531.25
2023-05-11T11:01:18.815Z,97532.16
2023-05-11T11:06:29.360Z,97522.16
2023-05-11T11:11:36.300Z,97524.78
2023-05-11T11:16:39.114Z,97523.41
2023-05-11T11:21:42.987Z,97528.09
2023-05-11T11:26:50.498Z,97524.78
2023-05-11T11:31:52.497Z,97522.75
2023-05-11T11:37:06.553Z,97517.44
2023-05-11T11:42:31.141Z,97527.50
2023-05-11T11:47:33.065Z,97528.75
2023-05-11T11:52:34.988Z,97532.78
2023-05-11T11:57:44.130Z,97530.34
2023-05-11T12:02:46.289Z,97527.91
2023-05-11T12:07:52.672Z,97532.56
2023-05-11T12:12:55.166Z,97534.75
2023-05-11T12:17:57.177Z,97539.25
2023-05-11T12:22:59.072Z,97547.44
2023-05-11T12:28:02.331Z,97545.41
2023-05-11T12:33:04.719Z,97546.13
2023-05-11T12:38:10.751Z,97537.22
2023-05-11T12:43:18.128Z,97538.25
2023-05-11T12:48:20.024Z,97534.88
2023-05-11T12:53:22.665Z,97534.47
2023-05-11T12:58:24.586Z,97538.19
2023-05-11T13:03:28.572Z,97540.28
2023-05-11T13:08:30.591Z,97533.66
2023-05-11T13:13:32.590Z,97537.19
2023-05-11T13:18:34.483Z,97540.50
2023-05-11T13:23:37.047Z,97543.69
2023-05-11T13:28:38.917Z,97539.25
2023-05-11T13:33:40.814Z,97536.38
2023-05-11T13:38:43.306Z,97528.59
2023-05-11T13:43:45.628Z,97538.56
2023-05-11T13:48:47.811Z,97527.72
2023-05-11T13:53:49.704Z,97528.94
2023-05-11T13:58:51.645Z,97523.81
2023-05-11T14:03:54.413Z,97528.41
2023-05-11T14:08:56.491Z,97529.78
2023-05-11T14:13:58.345Z,97520.66
2023-05-11T14:19:00.289Z,97523.50
2023-05-11T14:24:11.492Z,97521.19
2023-05-11T14:29:14.330Z,97522.06
2023-05-11T14:34:16.757Z,97519.34
2023-05-11T14:39:18.587Z,97523.22
2023-05-11T14:44:23.679Z,97518.91
2023-05-11T14:49:25.509Z,97521.59
2023-05-11T14:54:27.311Z,97523.06
2023-05-11T14:59:29.162Z,97519.84
2023-05-11T15:04:31.077Z,97524.97
2023-05-11T15:09:32.888Z,97526.78
2023-05-11T15:14:34.753Z,97531.00
2023-05-11T15:19:36.675Z,97534.47
2023-05-11T15:24:38.937Z,97534.56
2023-05-11T15:29:40.867Z,97534.00
2023-05-11T15:34:58.081Z,97536.03
2023-05-11T15:40:01.485Z,97538.94
2023-05-11T15:45:06.348Z,97547.38
2023-05-11T15:50:09.353Z,97549.44
2023-05-11T15:55:11.288Z,97555.06
2023-05-11T16:00:14.042Z,97555.28
2023-05-11T16:05:15.911Z,97543.59
2023-05-11T16:10:17.853Z,97557.56
2023-05-11T16:15:20.007Z,97547.06
2023-05-11T16:20:22.166Z,97547.41
2023-05-11T16:25:24.216Z,97547.31
2023-05-11T16:30:26.187Z,97549.00
2023-05-11T16:35:28.287Z,97553.22
2023-05-11T16:40:30.163Z,97557.34
2023-05-11T16:45:31.986Z,97547.97
2023-05-11T16:50:33.855Z,97563.84
2023-05-11T16:55:35.683Z,97562.69
2023-05-11T17:00:37.515Z,97568.16
2023-05-11T17:05:39.451Z,97571.50
2023-05-11T17:10:41.600Z,97576.84
2023-05-11T17:15:43.473Z,97582.19
2023-05-11T17:20:45.398Z,97582.03
2023-05-11T17:25:47.669Z,97584.44
2023-05-11T17:30:52.893Z,97581.97
2023-05-11T17:35:54.812Z,97586.31
2023-05-11T17:40:59.753Z,97594.09
2023-05-11T17:46:04.141Z,97602.59
2023-05-11T17:51:06.128Z,97605.28
2023-05-11T17:56:09.994Z,97609.44
2023-05-11T18:01:16.712Z,97611.53
2023-05-11T18:06:18.604Z,97619.78
2023-05-11T18:11:21.335Z,97622.16
2023-05-11T18:16:23.301Z,97626.25
2023-05-11T18:21:27.422Z,97623.03
2023-05-11T18:26:29.456Z,97636.00
2023-05-11T18:31:31.741Z,97638.53
2023-05-11T18:36:33.637Z,97647.41
2023-05-11T18:41:35.520Z,97648.13
2023-05-11T18:46:37.464Z,97650.84
2023-05-11T18:51:39.311Z,97654.72
2023-05-11T18:56:41.211Z,97669.88
2023-05-11T19:01:47.886Z,97683.19
2023-05-11T19:06:50.480Z,97673.56
2023-05-11T19:11:52.313Z,97683.91
2023-05-11T19:16:54.320Z,97686.19
2023-05-11T19:21:56.302Z,97693.84
2023-05-11T19:27:06.498Z,97701.94
2023-05-11T19:32:09.851Z,97702.31
2023-05-11T19:37:11.737Z,97705.13
2023-05-11T19:42:13.565Z,97705.34
2023-05-11T19:47:15.789Z,97704.16
2023-05-11T19:52:17.674Z,97705.38
2023-05-11T19:57:19.900Z,97702.56
2023-05-11T20:02:21.793Z,97705.81
2023-05-11T20:07:23.978Z,97706.41
2023-05-11T20:12:25.904Z,97714.06
2023-05-11T20:17:27.757Z,97714.44
2023-05-11T20:22:32.281Z,97725.09
2023-05-11T20:27:34.202Z,97721.25
2023-05-11T20:32:37.405Z,97723.19
2023-05-11T20:37:39.864Z,97721.94
2023-05-11T20:42:41.681Z,97718.50
2023-05-11T20:47:43.521Z,97716.25
2023-05-11T20:52:45.363Z,97724.19
2023-05-11T20:57:47.260Z,97720.53
2023-05-11T21:02:49.234Z,97713.59
2023-05-11T21:07:51.208Z,97715.75
2023-05-11T21:12:53.315Z,97718.28
2023-05-11T21:17:55.316Z,97721.63
2023-05-11T21:22:57.202Z,97714.53
2023-05-11T21:28:00.865Z,97722.47
2023-05-11T21:33:02.912Z,97722.56
2023-05-11T21:38:04.792Z,97724.72
2023-05-11T21:43:08.225Z,97728.56
2023-05-11T21:48:11.382Z,97723.53
2023-05-11T21:53:13.262Z,97729.94
2023-05-11T21:58:15.086Z,97740.03
2023-05-11T22:03:17.158Z,97738.13
2023-05-11T22:08:19.040Z,97736.91
2023-05-11T22:13:21.482Z,97737.63
2023-05-11T22:18:23.369Z,97737.34
2023-05-11T22:23:25.298Z,97735.72
2023-05-11T22:28:33.630Z,97739.22
2023-05-11T22:33:35.291Z,97744.47
2023-05-11T22:38:38.095Z,97741.66
2023-05-11T22:43:39.746Z,97744.28
2023-05-11T22:48:41.478Z,97755.28
2023-05-11T22:53:44.542Z,97755.88
2023-05-11T22:58:46.231Z,97769.28
2023-05-11T23:03:47.822Z,97760.09
2023-05-11T23:08:49.436Z,97759.81
2023-05-11T23:13:51.064Z,97759.50
2023-05-11T23:18:52.759Z,97760.97
2023-05-11T23:23:54.398Z,97756.47
2023-05-11T23:28:56.083Z,97741.06
2023-05-11T23:33:57.869Z,97737.00
2023-05-11T23:38:59.583Z,97742.53
2023-05-11T23:44:01.318Z,97741.22
2023-05-11T23:49:03.407Z,97743.91
2023-05-11T23:54:05.093Z,97731.34
2023-05-11T23:59:06.764Z,97737.28
